Time;durP1;ratioP1;P1;durP2;ratioP2;P2;SDS_P1;SDS_P2;PMS_P1;PMS_P2;Temp;Humidity;BMP_temperature;BMP_pressure;BME280_temperature;BME280_humidity;BME280_pressure;Samples;Min_cycle;Max_cycle;Signal;HPM_P1;HPM_P2
2023/01/07 00:01:19;;;;;;;0.52;0.40;;;;;;;16.66;32.59;101653.06;6189828;23;20061;-91
2023/01/07 00:03:45;;;;;;;1.45;0.57;;;;;;;16.66;32.63;101642.28;6189444;23;20054;-90
2023/01/07 00:06:20;;;;;;;0.50;0.40;;;;;;;16.68;32.60;101659.09;6189274;23;20059;-90
2023/01/07 00:08:47;;;;;;;0.57;0.50;;;;;;;16.65;32.59;101659.50;6214378;23;20007;-91
2023/01/07 00:11:21;;;;;;;0.70;0.47;;;;;;;16.68;32.41;101656.41;6189450;23;20008;-91
2023/01/07 00:13:50;;;;;;;0.57;0.50;;;;;;;16.67;32.67;101654.72;6191031;23;20000;-91
2023/01/07 00:16:18;;;;;;;0.52;0.40;;;;;;;16.65;32.67;101654.09;6213981;23;20000;-90
2023/01/07 00:18:47;;;;;;;1.05;0.40;;;;;;;16.68;32.71;101666.38;6188447;23;20047;-90
2023/01/07 00:21:15;;;;;;;0.93;0.45;;;;;;;16.67;32.73;101662.81;6188420;23;20031;-90
2023/01/07 00:23:41;;;;;;;0.95;0.50;;;;;;;16.68;32.70;101669.91;6189527;23;20226;-90
2023/01/07 00:26:29;;;;;;;1.35;0.60;;;;;;;16.69;32.77;101673.44;6214423;23;20012;-90
2023/01/07 00:28:54;;;;;;;0.40;0.40;;;;;;;16.64;32.72;101665.94;6213314;23;20035;-91
2023/01/07 00:31:22;;;;;;;0.95;0.35;;;;;;;16.65;33.01;101662.19;6188845;23;20341;-91
2023/01/07 00:34:05;;;;;;;0.40;0.40;;;;;;;16.67;32.51;101676.31;6189194;23;20098;-91
2023/01/07 00:36:39;;;;;;;1.75;0.52;;;;;;;16.61;32.78;101660.94;6195824;23;20075;-91
2023/01/07 00:39:07;;;;;;;0.65;0.43;;;;;;;16.65;32.69;101662.19;6214706;23;20256;-91
2023/01/07 00:41:33;;;;;;;1.10;0.60;;;;;;;16.66;32.60;101668.41;6214408;23;20297;-91
2023/01/07 00:43:58;;;;;;;0.75;0.50;;;;;;;16.65;32.74;101664.91;6214011;23;20024;-90
2023/01/07 00:46:24;;;;;;;0.77;0.50;;;;;;;16.68;32.66;101669.91;6214162;23;20000;-90
2023/01/07 00:48:50;;;;;;;0.70;0.40;;;;;;;16.64;32.69;101665.94;6213540;23;20090;-91
2023/01/07 00:51:16;;;;;;;0.77;0.50;;;;;;;16.64;32.68;101662.38;6214164;23;20010;-90
2023/01/07 00:53:42;;;;;;;0.52;0.30;;;;;;;16.67;32.56;101672.78;6214443;23;20329;-91
2023/01/07 00:56:11;;;;;;;0.60;0.40;;;;;;;16.66;32.70;101671.13;6239245;23;20004;-91
2023/01/07 00:58:36;;;;;;;0.93;0.55;;;;;;;16.61;32.63;101666.34;6188979;23;20479;-91
2023/01/07 01:01:02;;;;;;;0.77;0.50;;;;;;;16.66;32.85;101674.66;6188493;23;20091;-90
2023/01/07 01:03:28;;;;;;;0.50;0.40;;;;;;;16.64;32.79;101665.94;6188809;23;20027;-91
2023/01/07 01:05:54;;;;;;;0.70;0.43;;;;;;;16.67;32.58;101665.53;6214204;23;20484;-90
2023/01/07 01:08:20;;;;;;;0.57;0.40;;;;;;;16.62;32.68;101662.59;6214311;23;20019;-90
2023/01/07 01:10:46;;;;;;;1.08;0.40;;;;;;;16.66;32.62;101671.97;6239283;23;20000;-90
2023/01/07 01:13:16;;;;;;;1.45;0.50;;;;;;;16.68;32.73;101675.31;6239800;23;20413;-90
2023/01/07 01:15:46;;;;;;;1.08;0.40;;;;;;;16.62;32.84;101662.59;6214809;23;20577;-91
2023/01/07 01:18:12;;;;;;;1.95;0.60;;;;;;;16.65;32.59;101662.19;6214463;23;20043;-91
2023/01/07 01:20:38;;;;;;;0.52;0.38;;;;;;;16.65;32.53;101666.78;6188487;23;20518;-90
2023/01/07 01:23:04;;;;;;;1.05;0.60;;;;;;;16.63;32.46;101666.97;6213851;23;20004;-90
2023/01/07 01:25:29;;;;;;;0.80;0.40;;;;;;;16.63;32.69;101663.44;6214305;23;20703;-90
2023/01/07 01:27:55;;;;;;;0.60;0.50;;;;;;;16.63;32.89;101668.84;6214486;23;20004;-91
2023/01/07 01:30:21;;;;;;;1.42;0.40;;;;;;;16.64;32.67;101665.09;6188753;23;20057;-90
2023/01/07 01:32:46;;;;;;;0.50;0.40;;;;;;;16.63;32.58;101664.25;6240219;23;19996;-91
2023/01/07 01:35:12;;;;;;;0.47;0.38;;;;;;;16.63;32.59;101658.88;6240987;23;20438;-91
2023/01/07 01:37:38;;;;;;;0.55;0.50;;;;;;;16.67;32.51;101665.53;6216106;23;20026;-90
2023/01/07 01:40:05;;;;;;;0.60;0.40;;;;;;;16.63;32.70;101661.56;6190387;23;20019;-90
2023/01/07 01:42:31;;;;;;;0.40;0.40;;;;;;;16.59;32.62;101657.59;6190995;23;20011;-90
2023/01/07 01:44:58;;;;;;;0.93;0.40;;;;;;;16.61;32.62;101660.94;6190384;23;20949;-90
2023/01/07 01:47:32;;;;;;;0.55;0.47;;;;;;;16.67;32.78;101667.41;6240998;23;20039;-90
2023/01/07 01:50:08;;;;;;;1.50;0.40;;;;;;;16.63;32.67;101658.88;6216036;23;20292;-90
2023/01/07 01:52:37;;;;;;;0.38;0.38;;;;;;;16.61;32.62;101660.94;6217861;23;20004;-91
2023/01/07 01:55:04;;;;;;;0.70;0.35;;;;;;;16.65;32.67;101662.19;6215532;23;20487;-91
2023/01/07 01:57:30;;;;;;;0.50;0.35;;;;;;;16.64;32.73;101660.53;6191330;23;20078;-90
2023/01/07 01:59:56;;;;;;;0.30;0.30;;;;;;;16.62;32.73;101657.19;6191246;23;20008;-91
2023/01/07 02:02:25;;;;;;;0.40;0.40;;;;;;;16.64;32.75;101659.69;6216388;23;20401;-90
2023/01/07 02:04:51;;;;;;;0.40;0.40;;;;;;;16.60;32.75;101653.03;6190905;23;20011;-90
2023/01/07 02:07:17;;;;;;;1.10;0.57;;;;;;;16.61;32.60;101650.13;6216061;23;20321;-91
2023/01/07 02:09:43;;;;;;;1.02;0.45;;;;;;;16.63;32.60;101653.47;6191403;23;20004;-91
2023/01/07 02:12:20;;;;;;;0.63;0.40;;;;;;;16.67;32.73;101656.59;6191660;23;20325;-90
2023/01/07 02:15:21;;;;;;;0.50;0.30;;;;;;;16.68;32.79;101658.28;6240675;23;20464;-90
2023/01/07 02:17:58;;;;;;;0.80;0.38;;;;;;;16.60;32.78;101643.06;6226620;23;20019;-90
2023/01/07 02:21:02;;;;;;;0.60;0.50;;;;;;;16.66;32.68;101657.63;6241428;23;20008;-90
2023/01/07 02:23:41;;;;;;;0.40;0.40;;;;;;;16.61;32.79;101649.28;6172071;23;20159;-90
2023/01/07 02:26:34;;;;;;;0.55;0.55;;;;;;;16.67;32.75;101654.72;6241111;23;20087;-91
2023/01/07 02:29:36;;;;;;;0.60;0.40;;;;;;;16.66;32.71;101650.38;6215054;23;20942;-91
2023/01/07 02:32:05;;;;;;;0.88;0.40;;;;;;;16.63;32.76;101650.78;6240624;23;20329;-91
2023/01/07 02:34:45;;;;;;;0.75;0.43;;;;;;;16.64;32.80;101657.84;6242797;22;20386;-91
2023/01/07 02:37:51;;;;;;;0.40;0.38;;;;;;;16.67;32.83;101643.09;6192296;23;20004;-90
2023/01/07 02:40:36;;;;;;;0.30;0.30;;;;;;;16.65;32.47;101653.28;6095208;23;20140;-90
2023/01/07 02:43:15;;;;;;;0.65;0.38;;;;;;;16.65;32.66;101656.78;6211127;23;20000;-90
2023/01/07 02:46:10;;;;;;;0.70;0.60;;;;;;;16.59;32.93;101644.09;6241019;23;20008;-90
2023/01/07 02:48:36;;;;;;;0.55;0.40;;;;;;;16.57;32.65;101638.03;6194567;23;20011;-91
2023/01/07 02:51:02;;;;;;;0.55;0.50;;;;;;;16.62;32.62;101635.59;6190007;23;20008;-90
2023/01/07 02:53:28;;;;;;;0.40;0.30;;;;;;;16.64;32.79;101638.94;6190072;23;20337;-90
2023/01/07 02:56:23;;;;;;;0.25;0.25;;;;;;;16.66;32.80;101636.03;6215390;23;20000;-90
2023/01/07 02:59:09;;;;;;;0.40;0.40;;;;;;;16.64;32.66;101641.66;6214742;23;20066;-91
2023/01/07 03:01:57;;;;;;;0.80;0.40;;;;;;;16.64;32.82;101628.16;6215278;23;20011;-91
2023/01/07 03:04:51;;;;;;;0.30;0.30;;;;;;;16.64;32.72;101633.56;6215612;23;20012;-90
2023/01/07 03:07:46;;;;;;;0.43;0.40;;;;;;;16.66;32.59;101631.47;6191897;23;20020;-90
2023/01/07 03:10:16;;;;;;;1.60;0.50;;;;;;;16.64;32.81;101622.75;6149083;23;20012;-90
2023/01/07 03:12:49;;;;;;;1.48;0.40;;;;;;;16.61;32.78;101617.75;6215374;23;20393;-91
2023/01/07 03:15:17;;;;;;;0.73;0.40;;;;;;;16.64;32.77;101617.34;6190456;23;20008;-90
2023/01/07 03:17:51;;;;;;;0.47;0.40;;;;;;;16.63;32.77;101609.47;6214931;23;20066;-91
2023/01/07 03:20:16;;;;;;;;;;;;;;;16.66;32.66;101612.59;6217082;23;20102;-91
2023/01/07 03:22:42;;;;;;;0.60;0.40;;;;;;;16.62;32.66;101602.38;6240550;23;19907;-91
2023/01/07 03:25:08;;;;;;;0.52;0.40;;;;;;;16.58;32.70;101601.94;6214407;23;19992;-90
2023/01/07 03:27:33;;;;;;;0.63;0.32;;;;;;;16.62;32.68;101608.59;6214737;23;20255;-91
2023/01/07 03:30:00;;;;;;;0.40;0.40;;;;;;;16.63;32.68;101612.16;6215135;23;20000;-90
2023/01/07 03:32:31;;;;;;;0.85;0.50;;;;;;;16.62;32.76;101605.91;6214775;23;20000;-91
2023/01/07 03:34:56;;;;;;;0.32;0.32;;;;;;;16.60;32.69;101597.19;6214830;23;20011;-91
2023/01/07 03:37:23;;;;;;;0.52;0.30;;;;;;;16.63;32.63;101599.47;6214245;23;20000;-91
2023/01/07 03:39:49;;;;;;;0.60;0.40;;;;;;;16.63;32.73;101601.34;6215037;23;20008;-90
2023/01/07 03:44:59;;;;;;;;;;;;;;;16.65;32.75;101596.59;6219346;23;20017;-90
2023/01/07 03:47:26;;;;;;;0.57;0.40;;;;;;;16.63;32.69;101585.16;6214126;23;19982;-91
2023/01/07 03:49:51;;;;;;;0.40;0.40;;;;;;;16.61;32.66;101585.38;6214788;23;20322;-90
2023/01/07 03:52:17;;;;;;;0.80;0.35;;;;;;;16.62;32.71;101591.59;6189429;23;20019;-91
2023/01/07 03:54:43;;;;;;;0.43;0.40;;;;;;;16.61;32.73;101596.16;6188925;23;20012;-90
2023/01/07 03:57:08;;;;;;;0.40;0.40;;;;;;;16.61;32.71;101596.16;6213971;23;20039;-91
2023/01/07 03:59:34;;;;;;;1.10;0.43;;;;;;;16.62;32.77;101594.28;6214129;23;20010;-91
2023/01/07 04:02:00;;;;;;;0.38;0.38;;;;;;;16.60;32.73;101599.88;6189678;23;20031;-90
2023/01/07 04:04:25;;;;;;;0.40;0.40;;;;;;;16.58;32.69;101591.16;6189080;23;20119;-91
2023/01/07 04:06:51;;;;;;;0.50;0.50;;;;;;;16.62;32.59;101608.59;6188552;23;20438;-90
2023/01/07 04:09:23;;;;;;;0.65;0.30;;;;;;;16.63;32.45;101607.59;6214578;23;20008;-91
2023/01/07 04:11:48;;;;;;;0.63;0.40;;;;;;;16.60;32.68;101593.66;6191815;23;20063;-90
2023/01/07 04:14:14;;;;;;;0.30;0.30;;;;;;;16.63;32.50;101598.66;6214591;23;20001;-90
2023/01/07 04:16:40;;;;;;;0.55;0.40;;;;;;;16.58;32.55;101591.16;6188777;23;20000;-90
2023/01/07 04:19:06;;;;;;;0.43;0.40;;;;;;;16.60;32.73;101594.47;6213465;23;20040;-90
2023/01/07 04:21:31;;;;;;;0.73;0.28;;;;;;;16.58;32.58;101590.31;6214244;23;20425;-90
2023/01/07 04:23:57;;;;;;;0.60;0.40;;;;;;;16.61;32.67;101592.59;6188980;23;20062;-91
2023/01/07 04:26:22;;;;;;;0.57;0.50;;;;;;;16.57;32.58;101588.66;6189492;23;20441;-90
2023/01/07 04:28:48;;;;;;;0.50;0.22;;;;;;;16.60;32.67;101589.06;6213315;23;20034;-90
2023/01/07 04:31:14;;;;;;;0.47;0.47;;;;;;;16.59;32.68;101581.19;6189175;23;20091;-91
2023/01/07 04:33:39;;;;;;;0.77;0.47;;;;;;;16.56;32.58;101566.22;6214088;23;20107;-91
2023/01/07 04:36:05;;;;;;;0.40;0.40;;;;;;;16.59;32.51;101587.44;6188913;23;20005;-91
2023/01/07 04:38:31;;;;;;;1.10;0.30;;;;;;;16.58;32.67;101593.84;6187910;23;20337;-91
2023/01/07 04:40:56;;;;;;;0.45;0.38;;;;;;;16.54;32.61;101581.78;6213023;23;20425;-89
2023/01/07 04:43:22;;;;;;;0.70;0.32;;;;;;;16.58;32.74;101593.84;6189404;23;20018;-91
2023/01/07 04:45:48;;;;;;;0.60;0.40;;;;;;;16.60;32.66;101591.78;6214260;23;20000;-90
2023/01/07 04:48:14;;;;;;;1.05;0.60;;;;;;;16.58;32.59;101580.34;6189043;23;20312;-91
2023/01/07 04:50:39;;;;;;;0.50;0.40;;;;;;;16.55;32.59;101580.75;6214245;23;20011;-91
2023/01/07 04:53:05;;;;;;;0.75;0.45;;;;;;;16.61;32.60;101590.75;6213822;23;20312;-90
2023/01/07 04:55:30;;;;;;;0.60;0.40;;;;;;;16.55;32.63;101580.75;6213849;23;20007;-90
2023/01/07 04:57:56;;;;;;;0.68;0.50;;;;;;;16.58;32.80;101591.16;6189405;23;20004;-90
2023/01/07 05:00:22;;;;;;;0.88;0.52;;;;;;;16.58;32.70;101590.31;6214361;23;20079;-91
2023/01/07 05:02:48;;;;;;;1.20;0.40;;;;;;;16.56;32.61;101587.81;6213767;23;20551;-91
2023/01/07 05:05:13;;;;;;;0.40;0.40;;;;;;;16.54;32.73;101592.59;6189911;23;20028;-91
2023/01/07 05:07:39;;;;;;;0.50;0.50;;;;;;;16.59;32.63;101598.22;6191069;23;20437;-90
2023/01/07 05:10:05;;;;;;;0.52;0.38;;;;;;;16.51;32.52;101588.41;6191025;23;20019;-90
2023/01/07 05:12:34;;;;;;;0.30;0.30;;;;;;;16.54;32.34;101587.19;6191644;23;20038;-89
2023/01/07 05:15:01;;;;;;;0.30;0.30;;;;;;;16.54;32.75;101592.59;6191943;23;20429;-91
2023/01/07 05:17:27;;;;;;;0.40;0.30;;;;;;;16.57;32.63;101585.94;6216221;23;20460;-90
2023/01/07 05:19:52;;;;;;;0.38;0.35;;;;;;;16.55;32.62;101580.75;6216205;23;20505;-90
2023/01/07 05:22:18;;;;;;;0.57;0.40;;;;;;;16.54;32.64;101579.09;6190628;23;20015;-91
2023/01/07 05:24:47;;;;;;;0.88;0.50;;;;;;;16.57;32.53;101584.06;6215969;23;20006;-90
2023/01/07 05:27:12;;;;;;;1.27;0.40;;;;;;;16.54;32.79;101579.09;6215637;23;20000;-90
2023/01/07 05:29:38;;;;;;;0.38;0.30;;;;;;;16.58;32.74;101593.03;6191099;23;20504;-91
2023/01/07 05:32:04;;;;;;;1.08;0.47;;;;;;;16.52;32.65;101591.94;6191192;23;20012;-90
2023/01/07 05:34:29;;;;;;;0.40;0.40;;;;;;;16.54;32.41;101589.88;6216085;23;20000;-90
2023/01/07 05:36:55;;;;;;;0.68;0.50;;;;;;;16.52;32.64;101586.53;6215085;23;20428;-91
2023/01/07 05:39:21;;;;;;;0.30;0.30;;;;;;;16.55;32.62;101594.25;6190757;23;20081;-90
2023/01/07 05:41:46;;;;;;;0.43;0.43;;;;;;;16.57;32.60;101586.78;6191078;23;20004;-90
2023/01/07 05:44:12;;;;;;;0.65;0.30;;;;;;;16.48;32.66;101579.88;6215504;23;20014;-90
2023/01/07 05:46:38;;;;;;;0.82;0.55;;;;;;;16.56;32.73;101582.41;6190671;23;20441;-90
2023/01/07 05:49:03;;;;;;;0.95;0.50;;;;;;;16.54;32.72;101579.09;6215258;23;20098;-90
2023/01/07 05:51:29;;;;;;;1.73;0.32;;;;;;;16.52;32.62;101582.00;6190662;23;20004;-90
2023/01/07 05:53:55;;;;;;;0.40;0.40;;;;;;;16.51;32.73;101577.59;6190941;23;20073;-91
2023/01/07 05:56:21;;;;;;;0.40;0.40;;;;;;;16.56;32.68;101587.81;6215686;23;20070;-90
2023/01/07 05:58:46;;;;;;;0.70;0.50;;;;;;;16.53;32.62;101577.41;6215203;23;20008;-90
2023/01/07 06:01:12;;;;;;;0.88;0.35;;;;;;;16.53;32.72;101577.41;6240318;23;20046;-90
2023/01/07 06:03:38;;;;;;;0.40;0.40;;;;;;;16.51;32.48;101579.47;6190423;23;20008;-90
2023/01/07 06:06:06;;;;;;;0.40;0.40;;;;;;;16.54;32.62;101579.09;6215487;23;20049;-90
2023/01/07 06:08:35;;;;;;;0.50;0.40;;;;;;;16.52;32.67;101575.72;6215974;23;20070;-90
2023/01/07 06:11:01;;;;;;;0.70;0.50;;;;;;;16.55;32.63;101586.13;6214888;23;20011;-91
2023/01/07 06:13:27;;;;;;;0.65;0.47;;;;;;;16.54;32.59;101589.88;6190640;23;20008;-90
2023/01/07 06:15:58;;;;;;;0.98;0.40;;;;;;;16.56;32.68;101595.06;6190476;23;20038;-90
2023/01/07 06:18:23;;;;;;;0.45;0.35;;;;;;;16.53;32.70;101593.59;6216062;23;20081;-91
2023/01/07 06:20:49;;;;;;;1.02;0.40;;;;;;;16.51;32.62;101595.69;6189823;23;20012;-90
2023/01/07 06:23:15;;;;;;;0.65;0.40;;;;;;;16.53;32.64;101599.81;6190115;23;20061;-91
2023/01/07 06:25:41;;;;;;;0.80;0.40;;;;;;;16.53;32.59;101593.59;6215997;23;20077;-90
2023/01/07 06:28:06;;;;;;;0.40;0.30;;;;;;;16.53;32.65;101599.00;6189842;23;20008;-90
2023/01/07 06:30:32;;;;;;;0.57;0.40;;;;;;;16.51;32.68;101593.81;6190357;23;20012;-91
2023/01/07 06:32:58;;;;;;;0.30;0.30;;;;;;;16.48;32.69;101590.66;6189708;23;20433;-91
2023/01/07 06:35:23;;;;;;;0.70;0.55;;;;;;;16.47;32.60;101588.97;6240688;23;20032;-91
2023/01/07 06:37:49;;;;;;;0.40;0.40;;;;;;;16.53;32.48;101609.78;6190155;23;20023;-91
2023/01/07 06:40:15;;;;;;;1.10;0.50;;;;;;;16.51;32.35;101601.06;6215452;23;20035;-90
2023/01/07 06:42:40;;;;;;;0.47;0.40;;;;;;;16.49;32.58;101603.13;6189952;23;20012;-90
2023/01/07 06:45:06;;;;;;;1.45;0.50;;;;;;;16.50;32.54;101604.78;6189500;23;20008;-90
2023/01/07 06:47:32;;;;;;;0.40;0.40;;;;;;;16.48;32.60;101607.69;6189700;23;20004;-90
2023/01/07 06:49:58;;;;;;;0.90;0.60;;;;;;;16.52;32.71;101613.50;6214630;23;20015;-91
2023/01/07 06:52:23;;;;;;;0.98;0.55;;;;;;;16.50;32.57;101615.59;6215202;23;20494;-90
2023/01/07 06:54:49;;;;;;;0.60;0.45;;;;;;;16.50;32.35;101615.59;6189866;23;20437;-90
2023/01/07 06:57:14;;;;;;;0.95;0.40;;;;;;;16.53;32.56;101623.28;6190472;23;20087;-90
2023/01/07 06:59:40;;;;;;;0.40;0.40;;;;;;;16.50;32.65;101620.97;6190698;23;20034;-90
2023/01/07 07:02:06;;;;;;;0.22;0.22;;;;;;;16.49;32.43;101622.03;6190499;23;20012;-90
2023/01/07 07:04:31;;;;;;;0.40;0.40;;;;;;;16.48;32.59;101614.94;6189531;23;20018;-91
2023/01/07 07:06:57;;;;;;;0.40;0.40;;;;;;;16.52;32.50;101614.38;6189842;23;20095;-91
2023/01/07 07:09:23;;;;;;;0.40;0.30;;;;;;;16.47;32.40;101613.28;6190504;23;20097;-91
2023/01/07 07:11:48;;;;;;;1.10;0.52;;;;;;;16.48;32.44;101612.25;6190197;23;20010;-90
2023/01/07 07:14:14;;;;;;;0.50;0.40;;;;;;;16.48;32.67;101626.56;6214936;23;20251;-90
2023/01/07 07:16:40;;;;;;;0.40;0.30;;;;;;;16.52;32.87;101616.22;6215079;23;20275;-90
2023/01/07 07:19:05;;;;;;;0.85;0.60;;;;;;;16.48;32.57;101617.66;6188656;23;20353;-91
2023/01/07 07:21:31;;;;;;;0.57;0.55;;;;;;;16.51;32.70;101617.25;6214946;23;20004;-90
2023/01/07 07:23:57;;;;;;;0.30;0.30;;;;;;;16.48;32.21;101631.16;6190222;23;20351;-90
2023/01/07 07:26:22;;;;;;;0.40;0.40;;;;;;;16.50;32.57;101626.38;6214809;23;20000;-89
2023/01/07 07:28:48;;;;;;;0.30;0.30;;;;;;;16.50;32.50;101629.91;6188315;23;20008;-91
2023/01/07 07:31:13;;;;;;;0.40;0.40;;;;;;;16.49;32.49;101635.53;6214902;23;20024;-89
2023/01/07 07:33:39;;;;;;;0.70;0.45;;;;;;;16.39;32.35;101624.25;6214898;23;20019;-90
2023/01/07 07:36:05;;;;;;;0.80;0.50;;;;;;;16.50;32.44;101637.16;6215148;23;20010;-90
2023/01/07 07:38:31;;;;;;;0.47;0.30;;;;;;;16.49;32.59;101640.91;6189664;23;20030;-90
2023/01/07 07:40:56;;;;;;;1.15;0.50;;;;;;;16.45;32.45;101626.13;6189058;23;20631;-90
2023/01/07 07:43:22;;;;;;;0.52;0.35;;;;;;;16.46;32.42;101630.50;6189856;23;20036;-90
2023/01/07 07:45:48;;;;;;;0.77;0.50;;;;;;;16.46;32.58;101625.13;6189555;23;20492;-91
2023/01/07 07:48:14;;;;;;;1.08;0.73;;;;;;;16.44;32.66;101627.19;6214188;23;20088;-90
2023/01/07 07:50:39;;;;;;;0.57;0.47;;;;;;;16.42;32.25;101621.97;6189540;23;20083;-89
2023/01/07 07:53:08;;;;;;;0.50;0.38;;;;;;;16.41;32.05;101619.47;6214275;23;20004;-91
2023/01/07 07:55:38;;;;;;;0.47;0.47;;;;;;;16.43;32.40;101622.81;6190844;23;20008;-90
2023/01/07 07:58:04;;;;;;;0.40;0.40;;;;;;;16.41;32.30;101624.88;6215321;23;20080;-90
2023/01/07 08:00:30;;;;;;;0.40;0.35;;;;;;;16.41;32.35;101628.38;6189255;23;20008;-90
2023/01/07 08:02:59;;;;;;;1.10;0.40;;;;;;;16.38;32.33;101614.47;6214483;23;20129;-90
2023/01/07 08:05:25;;;;;;;0.52;0.50;;;;;;;16.45;32.32;101626.13;6215877;23;20000;-90
2023/01/07 08:07:51;;;;;;;0.57;0.43;;;;;;;16.50;32.00;101635.28;6214964;23;20436;-90
2023/01/07 08:10:20;;;;;;;1.25;0.45;;;;;;;16.47;32.44;101635.72;6189727;23;20012;-90
2023/01/07 08:12:46;;;;;;;0.73;0.38;;;;;;;16.44;32.36;101632.56;6189620;23;20402;-90
2023/01/07 08:15:11;;;;;;;1.20;0.50;;;;;;;16.46;32.56;101633.22;6190046;23;20087;-90
2023/01/07 08:17:37;;;;;;;0.43;0.40;;;;;;;16.44;32.55;101629.88;6190333;23;20083;-90
2023/01/07 08:20:03;;;;;;;0.55;0.40;;;;;;;16.42;32.43;101629.22;6240292;23;20090;-90
2023/01/07 08:22:29;;;;;;;1.27;0.50;;;;;;;16.46;32.55;101636.72;6215511;23;20007;-90
2023/01/07 08:24:55;;;;;;;0.95;0.57;;;;;;;16.46;32.56;101625.13;6214555;23;20004;-90
2023/01/07 08:27:21;;;;;;;0.63;0.40;;;;;;;16.45;32.26;101624.28;6190011;23;20004;-90
2023/01/07 08:29:46;;;;;;;1.50;0.50;;;;;;;16.43;32.22;101620.09;6214845;23;20004;-90
2023/01/07 08:32:12;;;;;;;1.23;0.50;;;;;;;16.38;32.33;101620.69;6190258;23;20015;-91
2023/01/07 08:34:38;;;;;;;0.70;0.40;;;;;;;16.46;32.02;101628.63;6214507;23;20035;-90
2023/01/07 08:37:03;;;;;;;0.52;0.50;;;;;;;16.43;32.36;101636.28;6189269;23;20018;-90
2023/01/07 08:39:29;;;;;;;0.80;0.40;;;;;;;16.43;32.54;101637.13;6189404;23;20277;-90
2023/01/07 08:41:55;;;;;;;0.30;0.30;;;;;;;16.46;32.47;101638.59;6215214;23;20039;-89
2023/01/07 08:44:20;;;;;;;0.40;0.40;;;;;;;16.43;32.49;101637.13;6214951;23;20382;-90
2023/01/07 08:46:46;;;;;;;1.23;0.50;;;;;;;16.43;32.59;101636.28;6214746;23;20335;-90
2023/01/07 08:49:15;;;;;;;1.00;0.55;;;;;;;16.44;32.41;101643.38;6189687;23;20471;-90
2023/01/07 08:51:40;;;;;;;0.73;0.40;;;;;;;16.46;32.35;101635.91;6214389;23;20012;-90
2023/01/07 08:54:06;;;;;;;0.45;0.32;;;;;;;16.44;32.54;101635.28;6214450;23;20012;-90
2023/01/07 08:56:32;;;;;;;0.30;0.30;;;;;;;16.41;32.35;101638.34;6214120;23;20015;-90
2023/01/07 08:58:58;;;;;;;0.80;0.50;;;;;;;16.42;32.24;101637.31;6188366;23;20101;-90
2023/01/07 09:01:24;;;;;;;1.63;0.50;;;;;;;16.44;32.34;101641.50;6190200;23;20032;-91
2023/01/07 09:03:49;;;;;;;0.40;0.40;;;;;;;16.44;32.31;101643.38;6214625;23;20331;-90
2023/01/07 09:06:15;;;;;;;0.60;0.30;;;;;;;16.44;32.56;101654.16;6188979;23;20232;-91
2023/01/07 09:08:41;;;;;;;0.30;0.30;;;;;;;16.41;32.33;101638.34;6213700;23;20004;-88
2023/01/07 09:11:07;;;;;;;0.70;0.50;;;;;;;16.45;32.36;101645.03;6187965;23;20004;-90
2023/01/07 09:13:32;;;;;;;0.93;0.60;;;;;;;16.43;32.47;101647.09;6214206;23;20441;-90
2023/01/07 09:15:59;;;;;;;0.65;0.50;;;;;;;16.41;32.45;101651.84;6214213;23;20000;-90
2023/01/07 09:18:24;;;;;;;0.73;0.50;;;;;;;16.39;32.14;101643.13;6189068;23;20031;-89
2023/01/07 09:20:50;;;;;;;0.47;0.40;;;;;;;16.46;32.21;101647.53;6188407;23;20372;-90
2023/01/07 09:23:16;;;;;;;0.40;0.40;;;;;;;16.27;31.72;101627.44;6214213;23;20011;-90
2023/01/07 09:25:41;;;;;;;1.65;0.60;;;;;;;16.43;31.94;101641.69;6239144;23;20004;-90
2023/01/07 09:28:07;;;;;;;0.77;0.40;;;;;;;16.42;32.22;101640.00;6188947;23;20008;-90
2023/01/07 09:30:33;;;;;;;0.75;0.50;;;;;;;16.40;32.01;101637.53;6214008;23;20004;-90
2023/01/07 09:32:59;;;;;;;1.85;0.47;;;;;;;16.43;31.91;101636.28;6212948;23;20023;-90
2023/01/07 09:35:24;;;;;;;0.38;0.38;;;;;;;16.41;32.01;101627.56;6214188;23;20004;-90
2023/01/07 09:37:50;;;;;;;0.50;0.40;;;;;;;16.44;32.26;101630.69;6213449;23;20004;-90
2023/01/07 09:40:49;;;;;;;0.65;0.60;;;;;;;16.38;32.23;101617.97;6213744;23;20004;-90
2023/01/07 09:43:29;;;;;;;0.85;0.50;;;;;;;16.42;31.86;101632.78;6218430;23;20004;-90
2023/01/07 09:45:57;;;;;;;0.60;0.50;;;;;;;16.42;32.04;101629.22;6213824;23;20125;-90
2023/01/07 09:48:36;;;;;;;0.35;0.35;;;;;;;16.43;31.94;101625.50;6214090;23;20008;-90
2023/01/07 09:51:07;;;;;;;0.95;0.43;;;;;;;16.38;32.27;101617.16;6213383;23;20016;-90
2023/01/07 09:53:36;;;;;;;2.20;0.50;;;;;;;16.40;31.97;101624.03;6191316;23;20456;-90
2023/01/07 09:56:03;;;;;;;0.50;0.40;;;;;;;16.26;32.08;101598.78;6215607;23;20007;-90
2023/01/07 09:58:29;;;;;;;1.17;0.45;;;;;;;16.37;32.04;101618.19;6190800;23;20004;-89
2023/01/07 10:01:00;;;;;;;0.38;0.38;;;;;;;16.43;32.15;101625.50;6190198;23;20018;-90
2023/01/07 10:03:38;;;;;;;0.50;0.38;;;;;;;16.39;32.25;101613.44;6240743;23;20008;-90
2023/01/07 10:06:08;;;;;;;0.52;0.45;;;;;;;16.43;32.31;101614.72;6240916;23;20425;-90
2023/01/07 10:08:52;;;;;;;0.80;0.50;;;;;;;16.38;32.26;101606.38;6215434;23;20353;-90
2023/01/07 10:11:42;;;;;;;0.52;0.40;;;;;;;16.41;32.13;101616.78;6216984;23;20248;-90
2023/01/07 10:14:08;;;;;;;2.25;0.40;;;;;;;16.42;32.12;101610.31;6242490;23;20075;-90
2023/01/07 10:16:54;;;;;;;2.05;0.77;;;;;;;16.38;31.96;101590.19;6242291;23;20031;-90
2023/01/07 10:19:42;;;;;;;0.57;0.45;;;;;;;16.43;32.13;101590.44;6214581;23;20068;-93
2023/01/07 10:22:49;;;;;;;0.77;0.50;;;;;;;16.40;32.18;101593.50;6240686;23;20004;-90
2023/01/07 10:25:18;;;;;;;0.47;0.40;;;;;;;16.39;32.35;101586.47;6239343;23;20011;-90
2023/01/07 10:27:45;;;;;;;0.40;0.40;;;;;;;16.25;32.24;101559.38;6190560;23;20012;-90
2023/01/07 10:30:17;;;;;;;0.95;0.40;;;;;;;16.33;32.21;101572.72;6215630;23;20008;-90
2023/01/07 10:32:47;;;;;;;0.40;0.40;;;;;;;16.25;32.05;101551.28;6190319;23;20091;-90
2023/01/07 10:35:16;;;;;;;0.70;0.40;;;;;;;16.39;32.00;101576.50;6191304;23;20059;-90
2023/01/07 10:37:41;;;;;;;0.45;0.40;;;;;;;16.37;32.40;101572.31;6191767;23;20266;-90
2023/01/07 10:40:07;;;;;;;0.68;0.52;;;;;;;16.42;32.17;101577.94;6215118;23;20533;-90
2023/01/07 10:42:57;;;;;;;0.95;0.50;;;;;;;16.36;32.38;101557.19;6242639;23;20433;-90
2023/01/07 10:45:44;;;;;;;0.40;0.40;;;;;;;16.38;31.92;101571.28;6192932;23;20445;-90
2023/01/07 10:48:28;;;;;;;0.40;0.40;;;;;;;16.36;32.17;101570.66;6240606;23;20345;-90
2023/01/07 10:50:56;;;;;;;0.30;0.30;;;;;;;16.36;31.52;101568.78;6215695;23;20012;-89
2023/01/07 10:53:32;;;;;;;0.77;0.50;;;;;;;16.37;31.97;101577.72;6243297;22;20349;-90
2023/01/07 10:56:00;;;;;;;0.60;0.47;;;;;;;16.38;31.67;101563.19;6190950;23;20425;-90
2023/01/07 10:58:38;;;;;;;0.40;0.40;;;;;;;16.28;31.95;101559.00;6240548;23;20008;-89
2023/01/07 11:01:04;;;;;;;0.82;0.60;;;;;;;16.33;32.24;101555.69;6215046;23;20402;-89
2023/01/07 11:03:30;;;;;;;0.43;0.43;;;;;;;16.27;32.14;101551.94;6189881;23;20062;-90
2023/01/07 11:05:58;;;;;;;0.40;0.40;;;;;;;16.32;32.20;101557.56;6189425;23;20008;-89
2023/01/07 11:08:53;;;;;;;0.45;0.40;;;;;;;16.35;32.26;101553.66;6214667;23;20000;-90
2023/01/07 11:11:19;;;;;;;0.60;0.50;;;;;;;16.36;32.35;101560.69;6207595;23;20035;-90
2023/01/07 11:14:01;;;;;;;0.45;0.32;;;;;;;16.38;32.34;101557.81;6215555;23;20417;-90
2023/01/07 11:16:31;;;;;;;0.63;0.40;;;;;;;16.29;32.42;101544.47;6192731;23;20032;-90
2023/01/07 11:19:06;;;;;;;1.30;0.40;;;;;;;16.28;32.20;101550.91;6190372;23;20035;-90
2023/01/07 11:21:40;;;;;;;0.50;0.32;;;;;;;16.32;31.74;101538.69;6216219;23;20016;-90
2023/01/07 11:24:18;;;;;;;0.40;0.30;;;;;;;16.38;32.04;101538.91;6191549;23;20012;-90
2023/01/07 11:26:47;;;;;;;0.60;0.40;;;;;;;16.28;32.07;101520.38;6239530;23;20015;-89
2023/01/07 11:29:23;;;;;;;1.40;0.60;;;;;;;16.31;32.38;101531.59;6190165;23;20391;-90
2023/01/07 11:31:54;;;;;;;0.80;0.40;;;;;;;16.30;32.42;101527.25;6216308;23;20058;-90
2023/01/07 11:34:25;;;;;;;0.38;0.38;;;;;;;16.33;32.06;101534.97;6189720;23;20004;-90
2023/01/07 11:36:51;;;;;;;0.40;0.38;;;;;;;16.30;32.37;101529.97;6214318;23;20380;-90
2023/01/07 11:39:25;;;;;;;0.63;0.50;;;;;;;16.33;32.34;101524.19;6214315;23;20016;-90